createdAt,value
2023-01-06T00:02:06.102Z,95324.16
2023-01-06T00:04:32.842Z,95326.67
2023-01-06T00:06:59.527Z,95331.59
2023-01-06T00:09:26.332Z,95327.66
2023-01-06T00:11:53.028Z,95330.55
2023-01-06T00:14:19.666Z,95331.50
2023-01-06T00:16:46.291Z,95332.76
2023-01-06T00:19:13.167Z,95338.45
2023-01-06T00:21:41.948Z,95346.11
2023-01-06T00:24:08.923Z,95352.29
2023-01-06T00:26:35.716Z,95357.80
2023-01-06T00:29:02.307Z,95358.09
2023-01-06T00:31:29.088Z,95359.73
2023-01-06T00:33:56.944Z,95370.65
2023-01-06T00:36:23.588Z,95376.07
2023-01-06T00:38:50.479Z,95384.80
2023-01-06T00:41:37.543Z,95392.20
2023-01-06T00:44:04.296Z,95393.39
2023-01-06T00:46:33.413Z,95395.51
2023-01-06T00:49:05.501Z,95398.39
2023-01-06T00:51:37.913Z,95403.17
2023-01-06T00:54:05.671Z,95404.90
2023-01-06T00:56:34.661Z,95408.05
2023-01-06T00:59:01.997Z,95409.07
2023-01-06T01:01:28.764Z,95406.47
2023-01-06T01:03:55.403Z,95408.77
2023-01-06T01:06:22.137Z,95409.33
2023-01-06T01:08:53.164Z,95410.91
2023-01-06T01:11:38.595Z,95414.27
2023-01-06T01:14:05.165Z,95408.48
2023-01-06T01:16:32.774Z,95412.30
2023-01-06T01:18:59.628Z,95415.67
2023-01-06T01:21:26.385Z,95420.44
2023-01-06T01:23:52.904Z,95430.35
2023-01-06T01:26:19.761Z,95433.34
2023-01-06T01:28:46.415Z,95434.98
2023-01-06T01:31:15.258Z,95435.82
2023-01-06T01:33:43.066Z,95438.83
2023-01-06T01:36:12.045Z,95442.54
2023-01-06T01:38:38.784Z,95441.39
2023-01-06T01:41:05.970Z,95440.78
2023-01-06T01:43:46.358Z,95436.98
2023-01-06T01:46:15.968Z,95434.05
2023-01-06T01:48:43.146Z,95438.96
2023-01-06T01:51:13.301Z,95442.00
2023-01-06T01:53:41.860Z,95445.39
2023-01-06T01:56:11.418Z,95444.06
2023-01-06T01:58:41.849Z,95449.66
2023-01-06T02:01:09.505Z,95448.34
2023-01-06T02:03:37.005Z,95449.73
2023-01-06T02:06:09.464Z,95451.57
2023-01-06T02:08:45.442Z,95451.77
2023-01-06T02:11:12.263Z,95446.00
2023-01-06T02:13:41.134Z,95443.60
2023-01-06T02:16:07.893Z,95442.58
2023-01-06T02:18:41.233Z,95443.26
2023-01-06T02:21:12.779Z,95447.67
2023-01-06T02:23:58.171Z,95445.92
2023-01-06T02:26:24.751Z,95444.38
2023-01-06T02:28:54.347Z,95442.55
2023-01-06T02:31:30.547Z,95444.67
2023-01-06T02:34:06.584Z,95441.20
2023-01-06T02:36:39.118Z,95435.58
2023-01-06T02:39:06.177Z,95439.31
2023-01-06T02:41:37.251Z,95435.38
2023-01-06T02:44:27.366Z,95436.63
2023-01-06T02:47:13.305Z,95439.85
2023-01-06T02:50:19.038Z,95448.27
2023-01-06T02:52:51.956Z,95452.78
2023-01-06T02:55:43.336Z,95453.10
2023-01-06T02:58:14.959Z,95456.55
2023-01-06T03:00:45.151Z,95458.59
2023-01-06T03:03:17.077Z,95455.41
2023-01-06T03:05:46.343Z,95459.77
2023-01-06T03:08:16.978Z,95463.95
2023-01-06T03:10:46.169Z,95462.05
2023-01-06T03:13:13.189Z,95464.71
2023-01-06T03:15:40.098Z,95474.12
2023-01-06T03:18:06.904Z,95472.52
2023-01-06T03:20:34.476Z,95472.35
2023-01-06T03:23:01.274Z,95468.73
2023-01-06T03:25:27.964Z,95469.85
2023-01-06T03:27:55.327Z,95475.17
2023-01-06T03:30:26.632Z,95473.38
2023-01-06T03:33:07.623Z,95474.28
2023-01-06T03:35:38.716Z,95478.34
2023-01-06T03:38:13.590Z,95475.98
2023-01-06T03:40:42.989Z,95484.06
2023-01-06T03:43:15.404Z,95491.03
2023-01-06T03:45:50.501Z,95493.91
2023-01-06T03:48:26.717Z,95498.41
2023-01-06T03:51:12.195Z,95495.40
2023-01-06T03:53:39.822Z,95492.52
2023-01-06T03:56:21.191Z,95491.38
2023-01-06T03:58:50.620Z,95492.09
2023-01-06T04:01:17.697Z,95492.88
2023-01-06T04:03:46.390Z,95492.34
2023-01-06T04:06:13.867Z,95493.78
2023-01-06T04:08:40.620Z,95497.67
2023-01-06T04:11:07.212Z,95507.70
2023-01-06T04:13:33.990Z,95513.37
2023-01-06T04:16:00.772Z,95520.83
2023-01-06T04:18:27.387Z,95521.66
2023-01-06T04:20:54.013Z,95525.52
2023-01-06T04:23:25.635Z,95525.23
2023-01-06T04:25:52.412Z,95530.52
2023-01-06T04:28:25.176Z,95530.20
2023-01-06T04:30:52.265Z,95536.79
2023-01-06T04:33:18.853Z,95539.55
2023-01-06T04:35:46.363Z,95544.55
2023-01-06T04:38:14.503Z,95548.52
2023-01-06T04:40:43.935Z,95554.98
2023-01-06T04:43:15.501Z,95564.88
2023-01-06T04:45:43.065Z,95568.78
2023-01-06T04:48:10.331Z,95568.55
2023-01-06T04:50:37.565Z,95569.33
2023-01-06T04:53:05.090Z,95573.06
2023-01-06T04:55:31.938Z,95571.39
2023-01-06T04:57:58.587Z,95580.48
2023-01-06T05:00:25.428Z,95582.38
2023-01-06T05:02:52.134Z,95586.48
2023-01-06T05:05:18.749Z,95585.02
2023-01-06T05:07:45.589Z,95589.29
2023-01-06T05:10:12.287Z,95596.37
2023-01-06T05:12:38.967Z,95601.98
2023-01-06T05:15:05.833Z,95605.93
2023-01-06T05:17:32.410Z,95609.33
2023-01-06T05:19:59.036Z,95610.60
2023-01-06T05:22:25.593Z,95610.84
2023-01-06T05:24:52.264Z,95614.48
2023-01-06T05:27:18.945Z,95616.52
2023-01-06T05:29:45.961Z,95621.21
2023-01-06T05:32:12.599Z,95633.30
2023-01-06T05:34:39.169Z,95644.73
2023-01-06T05:37:05.946Z,95649.59
2023-01-06T05:39:32.691Z,95648.97
2023-01-06T05:41:59.396Z,95651.64
2023-01-06T05:44:26.040Z,95659.60
2023-01-06T05:46:52.588Z,95670.08
2023-01-06T05:49:19.343Z,95670.95
2023-01-06T05:51:45.993Z,95677.15
2023-01-06T05:54:13.593Z,95688.97
2023-01-06T05:56:40.321Z,95695.48
2023-01-06T05:59:06.943Z,95696.31
2023-01-06T06:01:33.655Z,95701.02
2023-01-06T06:04:00.392Z,95701.91
2023-01-06T06:06:30.420Z,95708.77
2023-01-06T06:08:57.573Z,95711.06
2023-01-06T06:11:24.321Z,95719.23
2023-01-06T06:13:52.480Z,95715.02
2023-01-06T06:16:20.346Z,95715.00
2023-01-06T06:18:51.419Z,95716.26
2023-01-06T06:21:19.451Z,95721.58
2023-01-06T06:23:46.234Z,95725.48
2023-01-06T06:26:12.960Z,95725.27
2023-01-06T06:28:40.323Z,95725.42
2023-01-06T06:31:14.958Z,95725.17
2023-01-06T06:33:41.799Z,95732.98
2023-01-06T06:36:15.034Z,95734.90
2023-01-06T06:38:45.445Z,95741.26
2023-01-06T06:41:12.173Z,95742.05
2023-01-06T06:43:39.005Z,95752.39
2023-01-06T06:46:05.830Z,95760.45
2023-01-06T06:48:33.804Z,95769.42
2023-01-06T06:51:01.978Z,95770.27
2023-01-06T06:53:28.650Z,95775.21
2023-01-06T06:55:55.881Z,95776.75
2023-01-06T06:58:22.645Z,95778.14
2023-01-06T07:00:49.260Z,95786.77
2023-01-06T07:03:15.894Z,95790.50
2023-01-06T07:05:44.162Z,95795.11
2023-01-06T07:08:11.922Z,95800.14
2023-01-06T07:10:38.692Z,95805.55
2023-01-06T07:13:05.620Z,95803.71
2023-01-06T07:15:32.355Z,95802.14
2023-01-06T07:18:00.472Z,95801.05
2023-01-06T07:20:27.760Z,95803.27
2023-01-06T07:22:54.665Z,95808.20
2023-01-06T07:25:21.616Z,95817.84
2023-01-06T07:27:52.863Z,95821.73
2023-01-06T07:30:19.420Z,95826.13
2023-01-06T07:32:46.037Z,95834.77
2023-01-06T07:35:12.671Z,95831.99
2023-01-06T07:37:39.332Z,95835.98
2023-01-06T07:40:06.166Z,95831.17
2023-01-06T07:42:34.407Z,95828.36
2023-01-06T07:45:01.256Z,95828.22
2023-01-06T07:47:28.002Z,95834.61
2023-01-06T07:49:54.657Z,95831.98
2023-01-06T07:52:21.244Z,95835.84
2023-01-06T07:54:48.037Z,95835.52
2023-01-06T07:57:14.746Z,95835.98
2023-01-06T07:59:42.023Z,95841.42
2023-01-06T08:02:12.129Z,95844.89
2023-01-06T08:04:38.854Z,95849.38
2023-01-06T08:07:05.613Z,95851.38
2023-01-06T08:09:32.244Z,95855.05
2023-01-06T08:11:59.104Z,95862.42
2023-01-06T08:14:25.846Z,95865.41
2023-01-06T08:16:52.649Z,95857.67
2023-01-06T08:19:19.314Z,95859.77
2023-01-06T08:21:46.342Z,95864.19
2023-01-06T08:24:13.031Z,95868.23
2023-01-06T08:26:39.734Z,95870.57
2023-01-06T08:29:06.350Z,95872.17
2023-01-06T08:31:33.183Z,95869.86
2023-01-06T08:34:00.275Z,95866.58
2023-01-06T08:36:27.497Z,95867.33
2023-01-06T08:38:54.228Z,95870.97
2023-01-06T08:41:20.880Z,95874.14
2023-01-06T08:43:47.562Z,95881.86
2023-01-06T08:46:16.719Z,95893.91
2023-01-06T08:48:43.810Z,95902.14
2023-01-06T08:51:11.992Z,95912.17
2023-01-06T08:53:38.617Z,95911.19
2023-01-06T08:56:10.904Z,95917.75
2023-01-06T08:58:37.460Z,95918.80
2023-01-06T09:01:06.945Z,95924.05
2023-01-06T09:03:33.588Z,95926.98
2023-01-06T09:06:00.474Z,95926.54
2023-01-06T09:08:27.124Z,95926.22
2023-01-06T09:10:53.691Z,95920.35
2023-01-06T09:13:20.301Z,95917.60
2023-01-06T09:15:48.381Z,95917.21
2023-01-06T09:18:15.362Z,95916.02
2023-01-06T09:20:42.089Z,95918.95
2023-01-06T09:23:08.790Z,95920.41
2023-01-06T09:25:35.465Z,95916.09
2023-01-06T09:28:02.169Z,95916.15
2023-01-06T09:30:29.059Z,95919.27
2023-01-06T09:32:55.974Z,95917.11
2023-01-06T09:35:22.784Z,95921.27
2023-01-06T09:37:52.386Z,95917.75
2023-01-06T09:40:21.398Z,95914.51
2023-01-06T09:42:58.906Z,95917.10
2023-01-06T09:45:41.015Z,95911.73
2023-01-06T09:48:10.944Z,95908.58
2023-01-06T09:50:40.752Z,95902.20
2023-01-06T09:53:17.653Z,95892.48
2023-01-06T09:55:49.081Z,95891.66
2023-01-06T09:58:17.483Z,95892.14
2023-01-06T10:00:45.397Z,95896.32
2023-01-06T10:03:30.902Z,95895.60
2023-01-06T10:06:00.765Z,95893.26
2023-01-06T10:08:27.509Z,95892.06
2023-01-06T10:11:07.643Z,95890.72
2023-01-06T10:13:46.180Z,95889.86
2023-01-06T10:16:21.792Z,95894.66
2023-01-06T10:18:55.038Z,95891.89
2023-01-06T10:21:44.302Z,95892.62
2023-01-06T10:24:29.926Z,95889.42
2023-01-06T10:26:58.387Z,95887.38
2023-01-06T10:29:29.779Z,95891.39
2023-01-06T10:31:57.788Z,95889.46
2023-01-06T10:34:26.039Z,95889.91
2023-01-06T10:37:04.756Z,95888.84
2023-01-06T10:39:34.568Z,95888.88
2023-01-06T10:42:25.208Z,95892.92
2023-01-06T10:44:51.874Z,95892.95
2023-01-06T10:47:28.393Z,95891.17
2023-01-06T10:49:55.085Z,95874.11
2023-01-06T10:52:22.481Z,95872.85
2023-01-06T10:54:55.007Z,95867.72
2023-01-06T10:57:23.240Z,95866.53
2023-01-06T11:00:08.910Z,95862.08
2023-01-06T11:02:35.723Z,95854.02
2023-01-06T11:05:02.596Z,95850.13
2023-01-06T11:08:05.959Z,95846.11
2023-01-06T11:10:42.283Z,95843.89
2023-01-06T11:13:36.363Z,95840.75
2023-01-06T11:16:08.431Z,95837.23
2023-01-06T11:18:38.227Z,95831.91
2023-01-06T11:21:12.399Z,95824.48
2023-01-06T11:23:43.626Z,95809.63
2023-01-06T11:26:11.783Z,95801.67
2023-01-06T11:28:42.379Z,95799.70
2023-01-06T11:31:20.664Z,95800.14
2023-01-06T11:34:15.077Z,95804.71
2023-01-06T11:36:46.693Z,95803.35
2023-01-06T11:39:23.734Z,95801.02
2023-01-06T11:41:54.297Z,95798.39
2023-01-06T11:44:39.775Z,95796.45
2023-01-06T11:47:23.154Z,95795.75
2023-01-06T11:49:57.076Z,95790.16
2023-01-06T11:52:31.296Z,95789.73
2023-01-06T11:55:08.719Z,95791.77
2023-01-06T11:57:36.991Z,95792.91
2023-01-06T12:00:27.036Z,95794.07
2023-01-06T12:03:07.648Z,95796.43
2023-01-06T12:05:45.927Z,95798.20
2023-01-06T12:08:59.584Z,95795.97
2023-01-06T12:11:50.718Z,95788.30
2023-01-06T12:14:29.052Z,95791.41
2023-01-06T12:17:25.191Z,95795.43
2023-01-06T12:20:10.142Z,95801.05
2023-01-06T12:22:58.236Z,95797.98
2023-01-06T12:25:39.038Z,95800.46
2023-01-06T12:28:16.981Z,95804.95
2023-01-06T12:30:45.164Z,95806.37
2023-01-06T12:33:25.062Z,95806.77
2023-01-06T12:35:57.490Z,95800.43
2023-01-06T12:38:44.526Z,95797.09
2023-01-06T12:41:16.161Z,95801.12
2023-01-06T12:43:54.613Z,95801.38
2023-01-06T12:46:34.557Z,95802.49
2023-01-06T12:49:18.810Z,95807.17
2023-01-06T12:51:52.316Z,95808.54
2023-01-06T12:54:34.498Z,95800.80
2023-01-06T12:57:17.849Z,95798.98
2023-01-06T12:59:54.986Z,95798.31
2023-01-06T13:02:48.076Z,95795.80
2023-01-06T13:05:31.387Z,95800.86
2023-01-06T13:08:24.974Z,95800.11
2023-01-06T13:11:26.396Z,95810.06
2023-01-06T13:14:15.868Z,95812.49
2023-01-06T13:16:55.783Z,95817.38
2023-01-06T13:19:51.680Z,95822.18
2023-01-06T13:22:43.128Z,95825.11
2023-01-06T13:25:38.457Z,95824.25
2023-01-06T13:28:45.013Z,95829.66
2023-01-06T13:31:33.568Z,95831.86
2023-01-06T13:34:23.802Z,95834.19
2023-01-06T13:37:15.083Z,95843.19
2023-01-06T13:39:47.708Z,95844.40
2023-01-06T13:42:19.387Z,95850.11
2023-01-06T13:44:49.367Z,95855.89
2023-01-06T13:47:21.870Z,95856.77
2023-01-06T13:49:51.050Z,95855.39
2023-01-06T13:52:25.954Z,95858.77
2023-01-06T13:54:59.213Z,95855.86
2023-01-06T13:57:34.340Z,95859.58
2023-01-06T14:00:25.459Z,95861.77
2023-01-06T14:02:53.692Z,95868.57
2023-01-06T14:05:22.105Z,95878.80
2023-01-06T14:07:51.596Z,95884.78
2023-01-06T14:10:28.484Z,95882.20
2023-01-06T14:12:57.084Z,95883.13
2023-01-06T14:15:34.983Z,95890.31
2023-01-06T14:18:04.163Z,95890.16
2023-01-06T14:20:36.847Z,95893.00
2023-01-06T14:23:22.913Z,95899.77
2023-01-06T14:25:56.242Z,95901.11
2023-01-06T14:28:28.312Z,95908.27
2023-01-06T14:31:24.772Z,95909.63
2023-01-06T14:33:58.430Z,95905.55
2023-01-06T14:36:29.776Z,95905.89
2023-01-06T14:39:07.869Z,95912.09
2023-01-06T14:41:55.423Z,95915.63
2023-01-06T14:44:44.562Z,95918.73
2023-01-06T14:47:22.983Z,95918.42
2023-01-06T14:50:20.783Z,95921.66
2023-01-06T14:53:02.840Z,95918.09
2023-01-06T14:55:35.255Z,95919.90
2023-01-06T14:58:03.578Z,95921.04
2023-01-06T15:00:33.594Z,95923.80
2023-01-06T15:03:17.917Z,95923.77
2023-01-06T15:05:46.194Z,95926.48
2023-01-06T15:08:19.302Z,95925.31
2023-01-06T15:10:50.300Z,95929.13
2023-01-06T15:13:24.576Z,95931.88
2023-01-06T15:16:04.871Z,95932.45
2023-01-06T15:18:35.080Z,95933.36
2023-01-06T15:21:04.110Z,95933.42
2023-01-06T15:23:32.527Z,95943.71
2023-01-06T15:26:00.869Z,95947.54
2023-01-06T15:28:32.083Z,95956.92
2023-01-06T15:31:02.050Z,95959.86
2023-01-06T15:33:39.076Z,95962.35
2023-01-06T15:36:12.425Z,95965.15
2023-01-06T15:38:43.870Z,95967.98
2023-01-06T15:41:32.375Z,95968.31
2023-01-06T15:44:02.216Z,95968.61
2023-01-06T15:46:42.000Z,95967.20
2023-01-06T15:49:30.702Z,95964.64
2023-01-06T15:52:04.699Z,95967.34
2023-01-06T15:54:36.932Z,95962.98
2023-01-06T15:57:16.640Z,95958.33
2023-01-06T16:00:03.144Z,95952.00
2023-01-06T16:02:33.633Z,95950.66
2023-01-06T16:05:02.639Z,95948.29
2023-01-06T16:07:41.870Z,95946.33
2023-01-06T16:10:29.547Z,95953.58
2023-01-06T16:13:18.965Z,95954.15
2023-01-06T16:15:51.828Z,95955.56
2023-01-06T16:18:35.717Z,95957.39
2023-01-06T16:21:17.477Z,95958.16
2023-01-06T16:24:19.067Z,95964.83
2023-01-06T16:26:57.456Z,95961.11
2023-01-06T16:29:30.452Z,95962.23
2023-01-06T16:32:01.240Z,95969.13
2023-01-06T16:34:32.795Z,95971.29
2023-01-06T16:37:01.431Z,95973.95
2023-01-06T16:39:29.680Z,95970.27
2023-01-06T16:42:00.889Z,95964.84
2023-01-06T16:44:31.385Z,95962.35
2023-01-06T16:47:00.875Z,95958.44
2023-01-06T16:49:30.775Z,95956.45
2023-01-06T16:51:59.782Z,95953.39
2023-01-06T16:54:27.984Z,95954.08
2023-01-06T16:56:56.453Z,95952.84
2023-01-06T16:59:26.749Z,95957.58
2023-01-06T17:01:56.100Z,95962.02
2023-01-06T17:04:24.322Z,95959.29
2023-01-06T17:06:52.510Z,95964.35
2023-01-06T17:09:23.300Z,95968.17
2023-01-06T17:11:52.988Z,95965.95
2023-01-06T17:14:23.121Z,95969.95
2023-01-06T17:16:51.473Z,95971.56
2023-01-06T17:19:34.157Z,95974.89
2023-01-06T17:22:30.683Z,95979.84
2023-01-06T17:25:09.386Z,95988.02
2023-01-06T17:27:37.646Z,95995.66
2023-01-06T17:30:14.411Z,95998.77
2023-01-06T17:32:44.985Z,95994.95
2023-01-06T17:35:33.468Z,95991.59
2023-01-06T17:38:12.596Z,95990.17
2023-01-06T17:40:42.060Z,95989.59
2023-01-06T17:43:22.276Z,95986.68
2023-01-06T17:45:50.746Z,95984.26
2023-01-06T17:48:19.231Z,95988.23
2023-01-06T17:50:54.073Z,95995.82
2023-01-06T17:53:54.773Z,95991.33
2023-01-06T17:56:23.860Z,96006.48
2023-01-06T17:58:52.226Z,96006.77
2023-01-06T18:01:27.424Z,96005.05
2023-01-06T18:03:59.661Z,95997.61
2023-01-06T18:06:32.414Z,95998.39
2023-01-06T18:09:12.576Z,96002.63
2023-01-06T18:11:46.450Z,96008.16
2023-01-06T18:14:23.721Z,96009.46
2023-01-06T18:16:54.405Z,96009.10
2023-01-06T18:19:34.502Z,96004.62
2023-01-06T18:22:10.575Z,96000.78
2023-01-06T18:24:40.818Z,96002.70
2023-01-06T18:27:12.001Z,95997.52
2023-01-06T18:29:42.796Z,95989.95
2023-01-06T18:32:33.616Z,95988.19
2023-01-06T18:35:16.726Z,95986.48
2023-01-06T18:37:45.140Z,95989.55
2023-01-06T18:40:25.161Z,95994.65
2023-01-06T18:42:54.781Z,95997.71
2023-01-06T18:45:37.333Z,96000.45
2023-01-06T18:48:17.767Z,96000.62
2023-01-06T18:50:48.952Z,96001.55
2023-01-06T18:53:44.005Z,96004.39
2023-01-06T18:56:35.032Z,96010.88
2023-01-06T18:59:12.067Z,96007.55
2023-01-06T19:01:49.667Z,96005.04
2023-01-06T19:04:31.695Z,95997.21
2023-01-06T19:07:11.175Z,96001.06
2023-01-06T19:09:45.431Z,95998.31
2023-01-06T19:12:17.353Z,95998.29
2023-01-06T19:14:51.138Z,95989.45
2023-01-06T19:17:28.830Z,95985.10
2023-01-06T19:20:01.182Z,95978.46
2023-01-06T19:22:30.667Z,95976.01
2023-01-06T19:25:17.486Z,95980.34
2023-01-06T19:27:50.564Z,95984.88
2023-01-06T19:30:37.764Z,95992.94
2023-01-06T19:33:37.520Z,96002.51
2023-01-06T19:36:05.624Z,96001.59
2023-01-06T19:38:41.257Z,95992.88
2023-01-06T19:41:28.652Z,95992.56
2023-01-06T19:44:12.947Z,95996.86
2023-01-06T19:46:43.914Z,95994.34
2023-01-06T19:49:31.259Z,95977.13
2023-01-06T19:52:00.870Z,95975.23
2023-01-06T19:54:34.713Z,95979.71
2023-01-06T19:57:15.676Z,95984.91
2023-01-06T19:59:43.828Z,95986.60
2023-01-06T20:02:27.399Z,95991.30
2023-01-06T20:04:55.955Z,95993.95
2023-01-06T20:07:24.086Z,96002.60
2023-01-06T20:09:54.004Z,96005.86
2023-01-06T20:12:22.146Z,96013.23
2023-01-06T20:14:50.253Z,96017.41
2023-01-06T20:17:18.756Z,96014.19
2023-01-06T20:19:46.866Z,96014.15
2023-01-06T20:22:15.063Z,96015.39
2023-01-06T20:24:43.262Z,96019.33
2023-01-06T20:27:11.666Z,96018.54
2023-01-06T20:29:39.852Z,96015.21
2023-01-06T20:32:08.185Z,96012.56
2023-01-06T20:34:36.985Z,96013.69
2023-01-06T20:37:05.099Z,96011.74
2023-01-06T20:39:33.274Z,96011.15
2023-01-06T20:42:04.415Z,96016.05
2023-01-06T20:44:32.566Z,96016.47
2023-01-06T20:47:00.755Z,96007.59
2023-01-06T20:49:29.081Z,96001.20
2023-01-06T20:51:57.215Z,96005.08
2023-01-06T20:54:25.500Z,96008.38
2023-01-06T20:56:54.056Z,96018.68
2023-01-06T20:59:22.431Z,96019.37
2023-01-06T21:01:50.688Z,96021.27
2023-01-06T21:04:18.898Z,96022.55
2023-01-06T21:06:47.243Z,96024.65
2023-01-06T21:09:15.488Z,96024.51
2023-01-06T21:11:43.703Z,96031.44
2023-01-06T21:14:11.823Z,96035.96
2023-01-06T21:16:39.912Z,96033.63
2023-01-06T21:19:08.042Z,96025.77
2023-01-06T21:21:36.117Z,96025.31
2023-01-06T21:24:04.896Z,96023.77
2023-01-06T21:26:33.216Z,96032.34
2023-01-06T21:29:01.321Z,96034.92
2023-01-06T21:31:29.504Z,96035.23
2023-01-06T21:33:57.648Z,96034.45
2023-01-06T21:36:25.699Z,96039.58
2023-01-06T21:38:53.961Z,96041.02
2023-01-06T21:41:41.009Z,96042.60
2023-01-06T21:44:09.498Z,96050.84
2023-01-06T21:46:40.114Z,96050.70
2023-01-06T21:49:08.195Z,96053.56
2023-01-06T21:51:36.929Z,96050.75
2023-01-06T21:54:05.947Z,96049.67
2023-01-06T21:56:35.755Z,96050.38
2023-01-06T21:59:04.062Z,96054.65
2023-01-06T22:01:32.588Z,96052.86
2023-01-06T22:04:00.945Z,96047.44
2023-01-06T22:06:30.151Z,96050.85
2023-01-06T22:09:02.160Z,96046.73
2023-01-06T22:11:31.355Z,96044.70
2023-01-06T22:14:00.554Z,96042.73
2023-01-06T22:16:28.973Z,96042.52
2023-01-06T22:18:57.667Z,96042.36
2023-01-06T22:21:26.427Z,96054.10
2023-01-06T22:23:56.904Z,96045.44
2023-01-06T22:26:25.084Z,96042.98
2023-01-06T22:28:53.174Z,96038.91
2023-01-06T22:31:22.785Z,96040.51
2023-01-06T22:33:52.082Z,96043.53
2023-01-06T22:36:20.196Z,96047.58
2023-01-06T22:38:48.904Z,96045.41
2023-01-06T22:41:16.994Z,96044.11
2023-01-06T22:43:45.149Z,96029.49
2023-01-06T22:46:15.265Z,96029.36
2023-01-06T22:48:45.571Z,96025.63
2023-01-06T22:51:13.920Z,96025.34
2023-01-06T22:53:42.057Z,96022.53
2023-01-06T22:56:12.268Z,96018.88
2023-01-06T22:58:41.058Z,96022.35
2023-01-06T23:01:10.060Z,96021.87
2023-01-06T23:03:38.343Z,96026.94
2023-01-06T23:06:13.043Z,96024.00
2023-01-06T23:08:58.478Z,96022.10
2023-01-06T23:11:28.595Z,96021.33
2023-01-06T23:13:58.489Z,96017.36
2023-01-06T23:16:29.110Z,96016.69
2023-01-06T23:18:57.409Z,96011.78
2023-01-06T23:21:27.474Z,96019.02
2023-01-06T23:23:56.004Z,96015.92
2023-01-06T23:26:30.776Z,96008.71
2023-01-06T23:28:59.026Z,96003.80
2023-01-06T23:31:30.243Z,96002.17
2023-01-06T23:34:02.510Z,96001.93
2023-01-06T23:36:31.392Z,96000.59
2023-01-06T23:39:01.369Z,96008.59
2023-01-06T23:41:32.225Z,96009.98
2023-01-06T23:44:01.831Z,96003.17
2023-01-06T23:46:36.307Z,96001.60
2023-01-06T23:49:05.384Z,96002.14
2023-01-06T23:51:34.304Z,96002.80
2023-01-06T23:54:04.853Z,95993.55
2023-01-06T23:56:35.916Z,95976.02
2023-01-06T23:59:07.241Z,95974.81
